Terminal Aerodrome Forecast
Issued by NWS Brownsville, TX

Current Version | Previous Version | Text Only | Print | Product List | Glossary Off
Versions: 1 2 3 4 5 6 7 8 9 10 11 12 13 14 15 16 17

000
FTUS44 KBRO 202300
TAFMFE
TAF
KMFE 202334Z 2100/2124 13015G20KT P6SM OVC030
     FM210900 14006KT P6SM OVC015
      TEMPO 2110/2113 BKN007
     FM211500 14010KT P6SM OVC025
     FM211700 15012G18KT P6SM BKN035=

USA.gov is the U.S. government's official web portal to all federal, state and local government web resources and services.